Time;durP1;ratioP1;P1;durP2;ratioP2;P2;SDS_P1;SDS_P2;PMS_P1;PMS_P2;Temp;Humidity;BMP_temperature;BMP_pressure;BME280_temperature;BME280_humidity;BME280_pressure;Samples;Min_cycle;Max_cycle;Signal;HPM_P1;HPM_P2
2021/06/26 00:00:11;;;;;;;4.68;3.53;;;19.30;82.70;19.30;99720.00;;;;344221;28;83040;-87
2021/06/26 00:00:22;;;;;;;4.93;3.67;;;19.30;82.90;19.20;99721.00;;;;344291;28;91435;-87
2021/06/26 00:00:34;;;;;;;4.97;3.45;;;19.30;83.10;19.20;99726.00;;;;342301;28;82404;-88
2021/06/26 00:00:51;;;;;;;4.30;3.10;;;19.30;83.40;19.10;99716.00;;;;344298;28;89302;-87
2021/06/26 00:01:02;;;;;;;3.92;3.10;;;19.20;83.40;19.10;99722.00;;;;340901;28;84054;-86
2021/06/26 00:01:14;;;;;;;4.40;3.28;;;19.20;83.40;19.10;99715.00;;;;344830;28;88571;-86
2021/06/26 00:01:26;;;;;;;4.65;3.47;;;19.20;83.10;19.20;99714.00;;;;344621;28;82568;-86
2021/06/26 00:01:38;;;;;;;4.25;3.22;;;19.20;82.90;19.20;99711.00;;;;343159;28;88312;-93
2021/06/26 00:01:50;;;;;;;4.55;3.00;;;19.20;82.90;19.20;99717.00;;;;343945;28;82924;-87
2021/06/26 00:02:03;;;;;;;4.75;3.20;;;19.20;82.90;19.20;99721.00;;;;342954;28;90394;-86
2021/06/26 00:02:15;;;;;;;4.90;3.38;;;19.20;82.70;19.30;99720.00;;;;345115;28;83018;-87
2021/06/26 00:02:27;;;;;;;5.05;3.40;;;19.20;82.70;19.40;99715.00;;;;343266;28;88595;-88
2021/06/26 00:02:39;;;;;;;4.47;3.10;;;19.30;82.80;19.30;99716.00;;;;344157;28;82800;-87
2021/06/26 00:02:50;;;;;;;4.60;3.17;;;19.30;82.90;19.30;99722.00;;;;342428;28;91121;-87
2021/06/26 00:03:02;;;;;;;4.53;3.22;;;19.30;82.90;19.30;99716.00;;;;340956;28;82700;-85
2021/06/26 00:03:14;;;;;;;4.05;3.28;;;19.30;82.90;19.30;99720.00;;;;343082;28;89899;-90
2021/06/26 00:03:28;;;;;;;3.85;3.22;;;19.30;83.10;19.20;99711.00;;;;343206;28;82490;-87
2021/06/26 00:03:39;;;;;;;3.78;3.38;;;19.30;83.30;19.20;99718.00;;;;341697;28;91541;-86
2021/06/26 00:03:51;;;;;;;4.43;3.53;;;19.30;83.10;19.30;99716.00;;;;344853;28;82525;-92
2021/06/26 00:04:03;;;;;;;5.60;3.33;;;19.30;82.90;19.30;99712.00;;;;347580;28;88342;-86
2021/06/26 00:04:15;;;;;;;5.25;3.22;;;19.30;82.70;19.30;99719.00;;;;344899;28;82963;-88
2021/06/26 00:04:27;;;;;;;5.60;2.97;;;19.30;82.70;19.30;99717.00;;;;343712;28;89776;-85
2021/06/26 00:04:39;;;;;;;5.80;3.22;;;19.30;83.00;19.30;99719.00;;;;341768;28;82343;-86
2021/06/26 00:04:51;;;;;;;6.45;3.28;;;19.30;83.00;19.30;99711.00;;;;344705;28;89285;-88
2021/06/26 00:05:03;;;;;;;5.88;3.25;;;19.30;82.90;19.10;99720.00;;;;343881;28;82442;-86
2021/06/26 00:05:15;;;;;;;4.85;2.83;;;19.30;83.20;19.20;99720.00;;;;343950;28;91527;-86
2021/06/26 00:05:27;;;;;;;5.13;3.13;;;19.30;82.90;19.30;99720.00;;;;343077;28;84217;-86
2021/06/26 00:05:38;;;;;;;4.80;3.33;;;19.30;82.90;19.30;99713.00;;;;345729;28;90530;-90
2021/06/26 00:05:50;;;;;;;4.90;3.45;;;19.30;83.00;19.20;99713.00;;;;344853;28;82457;-86
2021/06/26 00:06:02;;;;;;;5.15;3.50;;;19.30;82.90;19.20;99724.00;;;;344408;28;90404;-86
2021/06/26 00:06:14;;;;;;;6.53;3.47;;;19.20;83.00;19.20;99719.00;;;;346224;28;82377;-86
2021/06/26 00:06:26;;;;;;;6.78;3.55;;;19.20;82.90;19.30;99715.00;;;;343532;28;88365;-86
2021/06/26 00:06:38;;;;;;;5.20;3.45;;;19.20;82.80;19.30;99713.00;;;;343308;28;84292;-86
2021/06/26 00:06:49;;;;;;;5.00;3.35;;;19.20;83.00;19.20;99717.00;;;;343932;28;88780;-89
2021/06/26 00:07:01;;;;;;;4.32;3.17;;;19.20;83.10;19.10;99710.00;;;;344428;28;82575;-86
2021/06/26 00:07:13;;;;;;;5.15;3.08;;;19.20;83.60;19.10;99719.00;;;;344294;28;91526;-89
2021/06/26 00:07:25;;;;;;;5.32;3.08;;;19.20;83.50;19.20;99718.00;;;;346334;28;82600;-87
2021/06/26 00:07:39;;;;;;;6.05;3.10;;;19.20;83.20;19.20;99713.00;;;;343051;28;91593;-88
2021/06/26 00:07:50;;;;;;;5.75;3.20;;;19.20;83.10;19.20;99711.00;;;;343746;28;82335;-88
2021/06/26 00:08:02;;;;;;;5.15;3.05;;;19.20;83.00;19.20;99710.00;;;;344524;28;88202;-88
2021/06/26 00:08:15;;;;;;;5.22;3.33;;;19.20;82.90;19.20;99706.00;;;;343011;28;82522;-90
2021/06/26 00:08:27;;;;;;;5.28;3.60;;;19.20;82.90;19.20;99711.00;;;;342819;28;91750;-87
2021/06/26 00:08:39;;;;;;;4.47;3.22;;;19.20;83.10;19.10;99718.00;;;;344342;28;82358;-86
2021/06/26 00:08:52;;;;;;;4.18;3.03;;;19.20;83.50;19.10;99711.00;;;;345749;28;89662;-88
2021/06/26 00:09:04;;;;;;;4.78;3.30;;;19.20;83.70;19.00;99707.00;;;;344671;28;82521;-87
2021/06/26 00:09:16;;;;;;;5.40;3.60;;;19.20;83.60;19.00;99717.00;;;;344674;28;88294;-88
2021/06/26 00:09:28;;;;;;;5.22;3.85;;;19.10;83.60;19.10;99714.00;;;;342833;28;82434;-87
2021/06/26 00:09:39;;;;;;;4.18;3.70;;;19.20;83.60;19.10;99722.00;;;;341770;28;88567;-86
2021/06/26 00:09:51;;;;;;;4.25;3.60;;;19.10;83.50;19.00;99716.00;;;;344465;28;82902;-87
2021/06/26 00:10:04;;;;;;;5.50;3.75;;;19.10;83.70;18.90;99712.00;;;;344152;28;91431;-88
2021/06/26 00:10:16;;;;;;;6.40;3.47;;;19.10;83.80;18.90;99713.00;;;;344745;28;82446;-87
2021/06/26 00:10:28;;;;;;;4.85;3.20;;;19.10;84.10;19.10;99715.00;;;;344335;28;91637;-86
2021/06/26 00:10:44;;;;;;;4.93;2.97;;;19.10;83.60;19.20;99707.00;;;;345003;28;82349;-86
2021/06/26 00:10:56;;;;;;;5.63;3.05;;;19.10;83.40;19.10;99713.00;;;;341337;28;90635;-86
2021/06/26 00:11:08;;;;;;;6.00;3.33;;;19.10;83.70;19.10;99710.00;;;;343091;28;83446;-86
2021/06/26 00:11:21;;;;;;;5.25;3.35;;;19.10;83.50;19.00;99710.00;;;;344043;28;88135;-87
2021/06/26 00:11:33;;;;;;;7.22;3.33;;;19.10;83.80;19.00;99714.00;;;;343065;28;84987;-87
2021/06/26 00:11:45;;;;;;;6.47;3.30;;;19.10;83.90;19.00;99718.00;;;;341574;28;91697;-87
2021/06/26 00:11:57;;;;;;;4.75;3.17;;;19.10;83.80;19.00;99712.00;;;;341417;28;82324;-87
2021/06/26 00:12:09;;;;;;;6.00;3.72;;;19.10;84.10;18.90;99713.00;;;;344734;28;88555;-87
2021/06/26 00:12:21;;;;;;;6.25;3.95;;;19.10;84.20;18.90;99702.00;;;;344650;28;84486;-88
2021/06/26 00:12:32;;;;;;;5.60;3.58;;;19.10;84.20;18.90;99705.00;;;;344527;28;88653;-90
2021/06/26 00:12:44;;;;;;;3.85;3.03;;;19.10;84.00;18.90;99716.00;;;;342562;28;82334;-94
2021/06/26 00:12:56;;;;;;;3.42;2.90;;;19.10;84.90;19.00;99710.00;;;;344418;28;88939;-95
2021/06/26 00:13:09;;;;;;;4.35;3.42;;;19.10;84.70;19.00;99713.00;;;;341742;28;82546;-92
2021/06/26 00:13:21;;;;;;;4.90;3.40;;;19.10;84.40;18.90;99705.00;;;;341838;28;92299;-93
2021/06/26 00:13:32;;;;;;;4.75;3.20;;;19.00;84.50;18.90;99705.00;;;;343055;28;82594;-96
2021/06/26 00:13:44;;;;;;;4.70;3.25;;;19.00;84.30;19.00;99718.00;;;;341296;28;89781;-96
2021/06/26 00:13:56;;;;;;;4.00;3.22;;;19.00;84.70;19.10;99714.00;;;;344101;28;83259;-95
2021/06/26 00:14:08;;;;;;;4.00;3.20;;;19.10;84.50;19.00;99715.00;;;;341625;28;88294;-88
2021/06/26 00:14:20;;;;;;;5.35;3.20;;;19.00;84.10;19.00;99714.00;;;;343848;28;83558;-94
2021/06/26 00:14:31;;;;;;;5.63;3.30;;;19.10;84.00;18.90;99710.00;;;;342768;28;88651;-96
2021/06/26 00:14:45;;;;;;;6.05;3.33;;;19.00;84.10;19.00;99706.00;;;;342429;28;84006;-96
2021/06/26 00:14:57;;;;;;;4.95;3.30;;;19.00;83.90;19.00;99712.00;;;;341036;28;89712;-92
2021/06/26 00:15:10;;;;;;;4.65;3.38;;;19.10;83.90;19.00;99713.00;;;;343722;28;82424;-96
2021/06/26 00:15:21;;;;;;;4.40;3.45;;;19.10;83.90;19.00;99711.00;;;;342563;28;89997;-96
2021/06/26 00:15:33;;;;;;;5.13;3.50;;;19.10;84.20;18.90;99713.00;;;;341709;28;82402;-96
2021/06/26 00:15:45;;;;;;;4.45;3.22;;;19.10;84.10;18.90;99710.00;;;;342701;28;88346;-96
2021/06/26 00:15:57;;;;;;;5.53;3.30;;;19.00;84.10;18.90;99703.00;;;;345554;28;83741;-94
2021/06/26 00:16:09;;;;;;;5.03;3.20;;;19.10;84.20;18.90;99711.00;;;;342689;28;87939;-94
2021/06/26 00:16:21;;;;;;;4.78;3.10;;;19.00;84.30;18.90;99710.00;;;;342930;28;84772;-96
2021/06/26 00:16:33;;;;;;;4.80;3.05;;;19.00;84.00;19.00;99710.00;;;;342309;28;89887;-94
2021/06/26 00:16:44;;;;;;;3.97;3.00;;;19.00;83.70;19.00;99703.00;;;;344205;28;83984;-96
2021/06/26 00:16:56;;;;;;;11.05;3.47;;;19.00;83.70;18.90;99706.00;;;;339918;28;89082;-96
2021/06/26 00:17:08;;;;;;;11.43;3.60;;;19.00;83.90;19.00;99707.00;;;;340595;28;83873;-95
2021/06/26 00:17:20;;;;;;;8.35;3.63;;;19.00;83.70;19.00;99707.00;;;;338331;28;96231;-94
2021/06/26 00:17:32;;;;;;;5.47;3.50;;;19.00;83.90;19.00;99707.00;;;;340137;28;83454;-96
2021/06/26 00:17:44;;;;;;;5.80;3.70;;;19.00;84.00;19.00;99710.00;;;;342267;28;91337;-96
2021/06/26 00:17:56;;;;;;;5.30;3.35;;;19.00;83.70;19.10;99716.00;;;;344224;28;83955;-96
2021/06/26 00:18:07;;;;;;;5.00;3.17;;;19.00;83.60;19.00;99704.00;;;;342274;28;89425;-95
2021/06/26 00:18:19;;;;;;;5.70;3.08;;;19.00;83.90;18.90;99706.00;;;;343032;28;82349;-95
2021/06/26 00:18:31;;;;;;;6.43;3.40;;;19.00;84.80;18.90;99699.00;;;;339906;28;88397;-96
2021/06/26 00:18:43;;;;;;;4.75;3.17;;;19.00;84.60;18.80;99707.00;;;;341598;28;83325;-95
2021/06/26 00:18:55;;;;;;;4.38;3.38;;;19.00;84.40;18.90;99707.00;;;;342487;28;90987;-95
2021/06/26 00:19:07;;;;;;;4.80;3.42;;;19.00;84.10;18.90;99709.00;;;;341467;28;83828;-95
2021/06/26 00:19:19;;;;;;;5.53;3.72;;;19.00;84.00;18.90;99703.00;;;;342629;28;89982;-95
2021/06/26 00:19:30;;;;;;;6.25;3.78;;;19.00;84.10;18.90;99705.00;;;;341571;28;82964;-96
2021/06/26 00:19:42;;;;;;;6.88;3.90;;;19.00;84.10;19.00;99705.00;;;;342553;28;89978;-96
2021/06/26 00:19:54;;;;;;;6.85;3.75;;;19.00;83.90;19.00;99708.00;;;;344426;28;83264;-95
2021/06/26 00:20:07;;;;;;;5.93;3.45;;;19.00;83.80;19.00;99705.00;;;;341474;28;90044;-90
2021/06/26 00:20:19;;;;;;;5.00;3.28;;;19.00;83.90;19.00;99706.00;;;;337084;28;82337;-93
2021/06/26 00:20:31;;;;;;;4.13;3.13;;;19.00;83.90;19.10;99707.00;;;;339866;28;89579;-96
2021/06/26 00:20:43;;;;;;;3.95;3.10;;;19.00;83.90;19.00;99707.00;;;;339781;28;83504;-96
2021/06/26 00:20:55;;;;;;;4.65;3.22;;;19.00;84.10;18.90;99709.00;;;;339858;28;89260;-96
2021/06/26 00:21:07;;;;;;;5.15;3.47;;;19.00;84.20;18.90;99710.00;;;;338907;28;82452;-92
2021/06/26 00:21:19;;;;;;;5.20;3.53;;;19.00;84.40;18.80;99702.00;;;;343914;28;89067;-95
2021/06/26 00:21:30;;;;;;;4.63;3.47;;;19.00;84.50;18.80;99707.00;;;;344397;28;82622;-94
2021/06/26 00:21:42;;;;;;;5.53;3.55;;;19.00;84.80;18.80;99707.00;;;;344003;28;89569;-96
2021/06/26 00:21:54;;;;;;;5.10;3.42;;;19.00;84.70;18.80;99707.00;;;;342944;28;82965;-96
2021/06/26 00:22:06;;;;;;;4.00;3.35;;;19.00;84.50;18.80;99704.00;;;;341028;28;88949;-95
2021/06/26 00:22:18;;;;;;;4.00;3.17;;;19.00;84.70;18.80;99706.00;;;;343068;28;83754;-96
2021/06/26 00:22:29;;;;;;;4.43;3.35;;;19.00;84.50;18.80;99715.00;;;;342518;28;88523;-96
2021/06/26 00:22:41;;;;;;;5.53;3.47;;;18.90;84.80;19.00;99705.00;;;;340150;28;82779;-95
2021/06/26 00:22:53;;;;;;;5.25;3.53;;;19.00;84.40;19.00;99709.00;;;;341088;28;89287;-96
2021/06/26 00:23:05;;;;;;;5.82;3.50;;;19.00;84.20;19.00;99714.00;;;;341060;28;82335;-94
2021/06/26 00:23:17;;;;;;;5.80;3.42;;;19.00;84.30;19.10;99719.00;;;;338043;28;90049;-94
2021/06/26 00:23:29;;;;;;;5.03;3.03;;;19.00;84.20;18.90;99705.00;;;;340333;28;83325;-96
2021/06/26 00:23:57;;;;;;;5.60;3.53;;;19.00;84.30;18.90;99713.00;;;;338514;28;88207;-96
2021/06/26 00:24:10;;;;;;;5.40;3.50;;;19.00;84.40;18.80;99703.00;;;;340944;28;83587;-96
2021/06/26 00:24:21;;;;;;;5.38;3.88;;;19.00;84.50;18.80;99703.00;;;;344071;28;88191;-96
2021/06/26 00:24:33;;;;;;;4.97;3.53;;;19.00;84.70;18.80;99707.00;;;;341583;28;82982;-94
2021/06/26 00:24:45;;;;;;;4.82;3.25;;;19.00;84.60;18.80;99701.00;;;;342550;28;89410;-95
2021/06/26 00:24:57;;;;;;;6.65;3.08;;;19.00;84.50;18.90;99710.00;;;;342947;28;82495;-96
2021/06/26 00:25:10;;;;;;;5.35;3.00;;;19.00;84.30;18.90;99710.00;;;;342641;28;88883;-96
2021/06/26 00:25:23;;;;;;;4.20;3.15;;;18.90;84.10;18.90;99705.00;;;;344286;28;83423;-96
2021/06/26 00:25:34;;;;;;;4.80;3.08;;;19.00;84.30;18.80;99712.00;;;;339735;28;89987;-95
2021/06/26 00:25:46;;;;;;;4.90;2.88;;;19.00;84.50;18.70;99707.00;;;;341441;28;83507;-96
2021/06/26 00:25:58;;;;;;;5.10;3.00;;;19.00;84.70;18.70;99709.00;;;;341241;28;89711;-94
2021/06/26 00:26:10;;;;;;;5.35;3.42;;;19.00;84.80;18.70;99708.00;;;;341343;28;83747;-92
2021/06/26 00:26:21;;;;;;;5.15;3.20;;;19.00;84.80;18.70;99717.00;;;;339988;28;90283;-96
2021/06/26 00:26:33;;;;;;;4.18;3.03;;;18.90;84.50;18.70;99713.00;;;;341672;28;82346;-96
2021/06/26 00:26:45;;;;;;;4.07;2.90;;;18.90;84.70;18.80;99709.00;;;;343873;28;91850;-96
2021/06/26 00:26:57;;;;;;;4.53;3.10;;;18.90;84.50;18.80;99708.00;;;;341053;28;83453;-95
2021/06/26 00:27:09;;;;;;;4.60;3.30;;;18.90;84.30;18.90;99709.00;;;;340587;28;90905;-96
2021/06/26 00:27:21;;;;;;;4.47;3.15;;;18.90;84.20;18.80;99706.00;;;;342686;28;84158;-96
2021/06/26 00:27:32;;;;;;;3.90;2.97;;;18.90;84.40;18.80;99710.00;;;;341313;28;89115;-96
2021/06/26 00:27:44;;;;;;;4.15;3.13;;;18.90;85.40;18.80;99707.00;;;;341709;28;82336;-96
2021/06/26 00:27:56;;;;;;;4.60;3.60;;;18.90;85.10;18.80;99712.00;;;;339902;28;89654;-96
2021/06/26 00:28:08;;;;;;;4.05;3.33;;;18.90;84.60;18.90;99712.00;;;;341584;28;82688;-96
2021/06/26 00:28:20;;;;;;;3.97;3.30;;;18.90;84.40;18.80;99716.00;;;;344022;28;88672;-95
2021/06/26 00:28:32;;;;;;;4.68;3.47;;;18.90;84.50;18.80;99713.00;;;;341550;28;83755;-96
2021/06/26 00:28:44;;;;;;;4.72;3.50;;;18.90;84.80;18.80;99713.00;;;;343894;28;89170;-94
2021/06/26 00:28:56;;;;;;;5.72;3.33;;;18.90;84.90;18.80;99712.00;;;;342900;28;82640;-94
2021/06/26 00:29:08;;;;;;;5.82;3.47;;;18.80;84.90;18.70;99711.00;;;;341618;28;89259;-96
2021/06/26 00:29:20;;;;;;;5.40;3.42;;;18.80;85.10;18.70;99707.00;;;;341938;28;83449;-89
2021/06/26 00:29:31;;;;;;;4.38;3.78;;;18.90;84.90;18.80;99711.00;;;;341764;28;89952;-95
2021/06/26 00:29:43;;;;;;;5.30;3.92;;;18.90;85.00;18.80;99709.00;;;;342779;28;83673;-96
2021/06/26 00:29:55;;;;;;;5.97;4.20;;;18.80;84.70;18.70;99708.00;;;;339977;28;89974;-95
2021/06/26 00:30:07;;;;;;;5.32;3.80;;;18.90;84.80;18.80;99707.00;;;;341532;28;82673;-92
2021/06/26 00:30:20;;;;;;;3.72;3.30;;;18.80;84.70;18.70;99718.00;;;;338651;28;89914;-96
2021/06/26 00:30:32;;;;;;;4.15;3.10;;;18.80;84.90;18.50;99712.00;;;;339069;28;82710;-96
2021/06/26 00:30:44;;;;;;;4.78;3.25;;;18.90;85.00;18.60;99708.00;;;;339455;28;89871;-96
2021/06/26 00:30:56;;;;;;;5.35;3.47;;;18.80;84.80;18.70;99713.00;;;;340808;28;83994;-96
2021/06/26 00:31:08;;;;;;;5.43;3.65;;;18.80;84.90;18.60;99703.00;;;;341095;28;91940;-96
2021/06/26 00:31:20;;;;;;;5.38;3.78;;;18.80;85.00;18.50;99705.00;;;;343413;28;82513;-91
2021/06/26 00:31:32;;;;;;;4.75;3.55;;;18.80;85.00;18.50;99700.00;;;;341435;28;87955;-96
2021/06/26 00:31:44;;;;;;;3.75;3.25;;;18.80;85.00;18.40;99704.00;;;;343030;28;82396;-96
2021/06/26 00:31:56;;;;;;;3.40;3.00;;;18.80;85.20;18.50;99699.00;;;;341224;28;91147;-96
2021/06/26 00:32:09;;;;;;;3.35;2.97;;;18.80;85.10;18.50;99704.00;;;;341149;28;84436;-94
2021/06/26 00:32:21;;;;;;;3.72;3.10;;;18.80;85.00;18.70;99707.00;;;;341407;28;89710;-95
2021/06/26 00:32:33;;;;;;;4.18;3.40;;;18.80;84.80;18.60;99704.00;;;;343091;28;83477;-95
2021/06/26 00:32:45;;;;;;;4.57;3.80;;;18.80;85.10;18.60;99707.00;;;;342332;28;88325;-95
2021/06/26 00:32:57;;;;;;;5.45;4.18;;;18.80;85.20;18.60;99711.00;;;;341591;28;83685;-94
2021/06/26 00:33:08;;;;;;;5.20;3.85;;;18.80;85.00;18.70;99705.00;;;;341058;28;88891;-94
2021/06/26 00:33:20;;;;;;;5.75;3.67;;;18.80;84.80;18.70;99701.00;;;;340389;28;83545;-96
2021/06/26 00:33:32;;;;;;;5.65;3.88;;;18.80;84.80;18.70;99699.00;;;;341447;28;88541;-95
2021/06/26 00:33:44;;;;;;;4.88;3.90;;;18.80;85.00;18.60;99697.00;;;;344158;28;84016;-94
2021/06/26 00:33:56;;;;;;;4.57;3.67;;;18.80;85.30;18.60;99705.00;;;;344974;28;89738;-95
2021/06/26 00:34:07;;;;;;;3.70;3.33;;;18.80;85.30;18.60;99701.00;;;;342971;28;83684;-95
2021/06/26 00:34:19;;;;;;;3.72;3.35;;;18.80;85.50;18.50;99699.00;;;;342307;28;91043;-95
2021/06/26 00:34:31;;;;;;;4.22;3.20;;;18.70;85.40;18.40;99705.00;;;;343197;28;82278;-96
2021/06/26 00:34:43;;;;;;;4.47;3.08;;;18.80;85.50;18.50;99704.00;;;;343587;28;89804;-94
2021/06/26 00:34:58;;;;;;;4.90;3.35;;;18.70;85.30;18.50;99701.00;;;;341808;28;82639;-93
2021/06/26 00:35:11;;;;;;;4.60;3.63;;;18.80;86.00;18.60;99703.00;;;;339751;28;88035;-95
2021/06/26 00:35:23;;;;;;;5.43;3.85;;;18.70;85.60;18.50;99696.00;;;;344032;28;83391;-90
2021/06/26 00:35:35;;;;;;;5.68;3.83;;;18.70;86.00;18.60;99705.00;;;;338749;28;91545;-94
2021/06/26 00:35:47;;;;;;;5.70;3.80;;;18.70;85.40;18.50;99697.00;;;;343317;28;82666;-95
2021/06/26 00:35:58;;;;;;;5.25;3.63;;;18.70;85.60;18.50;99699.00;;;;342297;28;89943;-92
2021/06/26 00:36:11;;;;;;;5.13;3.65;;;18.70;85.60;18.50;99700.00;;;;343006;28;85606;-95
2021/06/26 00:36:23;;;;;;;5.35;3.90;;;18.70;85.60;18.50;99700.00;;;;342844;28;89427;-95
2021/06/26 00:36:34;;;;;;;5.05;3.78;;;18.60;85.50;18.50;99697.00;;;;340750;28;84257;-94
2021/06/26 00:36:46;;;;;;;6.03;3.70;;;18.70;85.30;18.60;99695.00;;;;341361;28;92555;-95
2021/06/26 00:36:58;;;;;;;7.43;3.65;;;18.70;85.10;18.50;99696.00;;;;339245;28;83213;-95
2021/06/26 00:37:10;;;;;;;7.13;3.65;;;18.70;85.50;18.50;99696.00;;;;339119;28;89252;-95
2021/06/26 00:37:22;;;;;;;6.80;3.63;;;18.70;85.40;18.60;99699.00;;;;341630;28;82497;-96
2021/06/26 00:37:33;;;;;;;6.35;3.65;;;18.70;85.20;18.60;99703.00;;;;342995;28;91174;-96
2021/06/26 00:37:45;;;;;;;6.22;3.63;;;18.60;85.20;18.60;99693.00;;;;343298;28;83312;-96
2021/06/26 00:37:57;;;;;;;5.85;3.88;;;18.70;85.20;18.70;99700.00;;;;342577;28;89500;-92
2021/06/26 00:38:09;;;;;;;5.60;3.78;;;18.70;85.10;18.70;99700.00;;;;339352;28;82683;-95
2021/06/26 00:38:20;;;;;;;6.30;3.70;;;18.70;85.10;18.70;99704.00;;;;341394;28;93075;-92
2021/06/26 00:38:32;;;;;;;6.10;3.67;;;18.70;85.00;18.80;99704.00;;;;339178;28;82437;-95
2021/06/26 00:38:44;;;;;;;6.55;3.72;;;18.70;84.90;18.80;99702.00;;;;343961;28;89500;-93
2021/06/26 00:38:56;;;;;;;5.10;3.78;;;18.70;84.90;18.70;99704.00;;;;344775;28;82451;-96
2021/06/26 00:39:08;;;;;;;5.07;3.90;;;18.70;85.20;18.60;99710.00;;;;343835;28;90337;-96
2021/06/26 00:39:20;;;;;;;5.20;3.72;;;18.70;85.40;18.60;99701.00;;;;342779;28;82534;-93
2021/06/26 00:39:32;;;;;;;5.32;3.78;;;18.70;85.60;18.60;99702.00;;;;344233;28;88550;-96
2021/06/26 00:39:43;;;;;;;5.35;3.45;;;18.60;85.40;18.60;99705.00;;;;342772;28;84412;-95
2021/06/26 00:39:55;;;;;;;5.65;3.63;;;18.70;85.20;18.60;99697.00;;;;342390;28;88401;-91
2021/06/26 00:40:08;;;;;;;5.25;3.50;;;18.70;85.10;18.60;99702.00;;;;342669;28;83947;-94
2021/06/26 00:40:20;;;;;;;4.40;3.30;;;18.70;85.20;18.60;99702.00;;;;342961;28;90004;-95
2021/06/26 00:40:31;;;;;;;4.70;3.60;;;18.70;85.20;18.60;99708.00;;;;341269;28;83469;-95
2021/06/26 00:40:44;;;;;;;6.60;3.58;;;18.70;85.10;18.70;99699.00;;;;342780;28;91301;-96
2021/06/26 00:40:55;;;;;;;5.97;3.45;;;18.70;85.10;18.60;99704.00;;;;341771;28;85054;-96
2021/06/26 00:41:07;;;;;;;6.40;3.42;;;18.70;85.30;18.70;99706.00;;;;342224;28;89485;-95
2021/06/26 00:41:19;;;;;;;6.38;3.67;;;18.70;85.10;18.60;99704.00;;;;341610;28;83375;-90
2021/06/26 00:41:31;;;;;;;5.88;3.80;;;18.70;85.30;18.50;99691.00;;;;342824;28;89930;-96
2021/06/26 00:41:43;;;;;;;5.13;3.55;;;18.70;85.40;18.50;99707.00;;;;341848;28;82417;-96
2021/06/26 00:41:55;;;;;;;3.92;2.83;;;18.70;85.40;18.50;99700.00;;;;342661;28;91274;-95
2021/06/26 00:42:07;;;;;;;4.32;3.10;;;18.70;86.00;18.40;99698.00;;;;342653;28;83541;-95
2021/06/26 00:42:19;;;;;;;5.97;3.25;;;18.70;86.40;18.50;99701.00;;;;340963;28;89479;-94
2021/06/26 00:42:32;;;;;;;5.65;3.38;;;18.60;85.90;18.60;99707.00;;;;339407;28;82491;-95
2021/06/26 00:42:44;;;;;;;4.70;3.40;;;18.60;85.50;18.60;99701.00;;;;342511;28;87988;-96
2021/06/26 00:42:59;;;;;;;3.92;3.35;;;18.60;85.70;18.60;99697.00;;;;342594;28;84992;-96
2021/06/26 00:43:11;;;;;;;4.53;3.38;;;18.60;85.60;18.60;99701.00;;;;341723;28;91630;-95
2021/06/26 00:43:23;;;;;;;5.13;3.50;;;18.60;85.70;18.60;99699.00;;;;341173;28;84010;-96
2021/06/26 00:43:35;;;;;;;5.80;3.63;;;18.60;85.50;18.70;99701.00;;;;341413;28;89932;-96
2021/06/26 00:43:46;;;;;;;5.05;3.67;;;18.60;85.30;18.60;99696.00;;;;341724;28;83633;-96
2021/06/26 00:43:58;;;;;;;4.88;3.78;;;18.60;85.40;18.60;99701.00;;;;344131;28;89139;-95
2021/06/26 00:44:10;;;;;;;4.72;3.53;;;18.60;85.40;18.50;99703.00;;;;338739;28;82760;-95
2021/06/26 00:44:27;;;;;;;5.55;3.78;;;18.60;85.40;18.60;99701.00;;;;341733;28;88299;-95
2021/06/26 00:44:40;;;;;;;5.20;3.85;;;18.60;85.20;18.70;99693.00;;;;342851;28;82743;-95
2021/06/26 00:44:52;;;;;;;4.60;3.70;;;18.70;85.20;18.70;99694.00;;;;341584;28;88299;-95
2021/06/26 00:45:06;;;;;;;4.70;3.65;;;18.70;85.20;18.70;99695.00;;;;340535;28;82243;-96
2021/06/26 00:45:18;;;;;;;4.28;3.30;;;18.70;85.10;18.80;99694.00;;;;339850;28;92341;-94
2021/06/26 00:45:30;;;;;;;3.90;3.20;;;18.70;85.10;18.70;99691.00;;;;340449;28;83261;-94
2021/06/26 00:45:41;;;;;;;4.63;3.30;;;18.70;85.20;18.70;99694.00;;;;340108;28;89555;-96
2021/06/26 00:45:56;;;;;;;4.47;3.17;;;18.70;85.20;18.60;99693.00;;;;340483;28;83467;-96
2021/06/26 00:46:08;;;;;;;4.78;3.13;;;18.70;85.20;18.70;99692.00;;;;338984;28;89645;-94
2021/06/26 00:46:20;;;;;;;5.18;3.00;;;18.70;85.10;18.70;99692.00;;;;342343;28;83273;-95
2021/06/26 00:46:32;;;;;;;5.00;2.95;;;18.70;85.10;18.80;99692.00;;;;342602;28;88598;-93
2021/06/26 00:46:44;;;;;;;4.75;3.15;;;18.70;85.00;18.70;99694.00;;;;341455;28;82825;-95
2021/06/26 00:46:56;;;;;;;4.55;3.40;;;18.70;85.20;18.80;99690.00;;;;342875;28;89952;-96
2021/06/26 00:47:12;;;;;;;4.82;3.70;;;18.70;85.20;18.80;99687.00;;;;342695;28;83712;-96
2021/06/26 00:47:24;;;;;;;4.40;3.60;;;18.70;85.20;18.70;99694.00;;;;343204;28;89459;-96
2021/06/26 00:47:37;;;;;;;4.55;3.45;;;18.70;85.10;18.50;99696.00;;;;343011;28;83274;-92
2021/06/26 00:47:49;;;;;;;4.80;3.33;;;18.70;85.20;18.50;99691.00;;;;342882;28;88063;-95
2021/06/26 00:48:01;;;;;;;5.68;3.42;;;18.70;85.50;18.50;99690.00;;;;341673;28;83712;-95
2021/06/26 00:48:13;;;;;;;4.82;3.00;;;18.70;85.60;18.60;99697.00;;;;342764;28;89014;-96
2021/06/26 00:48:25;;;;;;;6.43;3.20;;;18.60;85.40;18.60;99691.00;;;;343173;28;83280;-95
2021/06/26 00:48:36;;;;;;;6.57;3.50;;;18.60;85.20;18.50;99698.00;;;;341412;28;89832;-92
2021/06/26 00:48:48;;;;;;;5.45;3.72;;;18.60;85.50;18.50;99692.00;;;;343219;28;82361;-95
2021/06/26 00:49:00;;;;;;;4.93;3.50;;;18.60;85.60;18.50;99684.00;;;;342858;28;89604;-96
2021/06/26 00:49:12;;;;;;;5.78;3.47;;;18.60;85.60;18.40;99698.00;;;;341672;28;83657;-94
2021/06/26 00:49:24;;;;;;;6.32;3.50;;;18.60;85.50;18.40;99694.00;;;;342580;28;92384;-94
2021/06/26 00:49:35;;;;;;;6.32;3.47;;;18.60;85.60;18.40;99692.00;;;;343150;28;83390;-94
2021/06/26 00:49:47;;;;;;;4.60;3.30;;;18.60;85.70;18.40;99693.00;;;;342539;28;89511;-93
2021/06/26 00:49:59;;;;;;;4.70;3.15;;;18.50;85.50;18.50;99695.00;;;;341494;28;82418;-95
2021/06/26 00:50:21;;;;;;;4.43;3.00;;;18.60;85.40;18.60;99698.00;;;;339579;28;89536;-95
2021/06/26 00:50:33;;;;;;;4.07;3.15;;;18.60;85.20;18.60;99691.00;;;;339081;28;83265;-96
2021/06/26 00:50:45;;;;;;;4.35;3.10;;;18.60;85.20;18.50;99695.00;;;;341359;28;88337;-96
2021/06/26 00:50:57;;;;;;;4.18;3.00;;;18.50;85.40;18.60;99695.00;;;;343122;28;83897;-96
2021/06/26 00:51:08;;;;;;;4.13;3.10;;;18.60;85.30;18.60;99692.00;;;;342395;28;88337;-96
2021/06/26 00:51:20;;;;;;;4.40;3.10;;;18.60;85.10;18.70;99698.00;;;;340333;28;83669;-95
2021/06/26 00:51:32;;;;;;;4.40;3.28;;;18.60;85.10;18.60;99689.00;;;;342665;28;90579;-94
2021/06/26 00:51:44;;;;;;;4.35;3.25;;;18.60;85.00;18.60;99693.00;;;;341631;28;83604;-95
2021/06/26 00:51:56;;;;;;;4.05;3.15;;;18.60;85.00;18.60;99691.00;;;;338814;28;89683;-94
2021/06/26 00:52:08;;;;;;;4.45;2.97;;;18.50;84.90;18.60;99691.00;;;;339922;28;83306;-94
2021/06/26 00:52:19;;;;;;;4.97;3.00;;;18.60;84.90;18.60;99696.00;;;;340017;28;89940;-96
2021/06/26 00:52:31;;;;;;;4.68;2.90;;;18.50;84.70;18.60;99693.00;;;;341674;28;83346;-95
2021/06/26 00:52:43;;;;;;;4.97;3.00;;;18.60;84.80;18.60;99695.00;;;;341208;28;88576;-95
2021/06/26 00:52:55;;;;;;;4.57;2.95;;;18.60;84.80;18.80;99693.00;;;;343270;28;82439;-95
2021/06/26 00:53:08;;;;;;;4.70;3.08;;;18.60;84.80;18.80;99689.00;;;;341342;28;90774;-92
2021/06/26 00:53:20;;;;;;;4.70;3.10;;;18.60;85.40;18.70;99691.00;;;;339754;28;83517;-95
2021/06/26 00:53:31;;;;;;;4.40;3.22;;;18.60;84.70;18.60;99695.00;;;;340005;28;92427;-95
2021/06/26 00:53:43;;;;;;;3.85;3.13;;;18.60;84.90;18.50;99691.00;;;;341465;28;83769;-93
2021/06/26 00:53:55;;;;;;;3.97;3.10;;;18.60;85.10;18.60;99689.00;;;;342846;28;91187;-96
2021/06/26 00:54:07;;;;;;;3.80;3.15;;;18.60;85.20;18.70;99685.00;;;;340151;28;84010;-93
2021/06/26 00:54:18;;;;;;;3.72;2.85;;;18.60;85.00;18.70;99687.00;;;;342853;28;89739;-94
2021/06/26 00:54:30;;;;;;;3.58;2.72;;;18.50;84.80;18.70;99690.00;;;;341412;28;84481;-89
2021/06/26 00:54:42;;;;;;;4.30;2.92;;;18.60;84.80;18.60;99698.00;;;;342073;28;90442;-96